sensor_id;sensor_type;location;lat;lon;timestamp;P1;durP1;ratioP1;P2;durP2;ratioP2
12212;SDS011;6169;44.158;22.788;2024-02-26T00:00:28;11.90;;;8.48;;
12212;SDS011;6169;44.158;22.788;2024-02-26T00:05:31;11.35;;;8.50;;
12212;SDS011;6169;44.158;22.788;2024-02-26T00:10:34;14.32;;;10.60;;
12212;SDS011;6169;44.158;22.788;2024-02-26T00:15:36;11.43;;;8.50;;
12212;SDS011;6169;44.158;22.788;2024-02-26T00:20:39;11.15;;;7.80;;
12212;SDS011;6169;44.158;22.788;2024-02-26T00:25:43;18.30;;;9.45;;
12212;SDS011;6169;44.158;22.788;2024-02-26T00:30:45;13.98;;;9.05;;
12212;SDS011;6169;44.158;22.788;2024-02-26T00:35:48;13.68;;;8.57;;
12212;SDS011;6169;44.158;22.788;2024-02-26T00:40:50;15.80;;;9.07;;
12212;SDS011;6169;44.158;22.788;2024-02-26T00:45:52;12.48;;;8.27;;
12212;SDS011;6169;44.158;22.788;2024-02-26T00:50:56;18.33;;;11.25;;
12212;SDS011;6169;44.158;22.788;2024-02-26T00:55:58;13.60;;;8.98;;
12212;SDS011;6169;44.158;22.788;2024-02-26T01:01:00;13.38;;;8.50;;
12212;SDS011;6169;44.158;22.788;2024-02-26T01:06:04;13.25;;;9.02;;
12212;SDS011;6169;44.158;22.788;2024-02-26T01:11:06;17.65;;;10.40;;
12212;SDS011;6169;44.158;22.788;2024-02-26T01:16:09;14.77;;;10.38;;
12212;SDS011;6169;44.158;22.788;2024-02-26T01:21:12;15.93;;;9.23;;
12212;SDS011;6169;44.158;22.788;2024-02-26T01:26:14;18.25;;;12.05;;
12212;SDS011;6169;44.158;22.788;2024-02-26T01:31:16;13.48;;;9.32;;
12212;SDS011;6169;44.158;22.788;2024-02-26T01:36:20;19.20;;;12.35;;
12212;SDS011;6169;44.158;22.788;2024-02-26T01:41:22;19.02;;;12.57;;
12212;SDS011;6169;44.158;22.788;2024-02-26T01:46:24;22.00;;;13.23;;
12212;SDS011;6169;44.158;22.788;2024-02-26T01:51:28;22.33;;;13.13;;
12212;SDS011;6169;44.158;22.788;2024-02-26T01:56:31;21.63;;;12.45;;
12212;SDS011;6169;44.158;22.788;2024-02-26T02:01:34;26.38;;;13.20;;
12212;SDS011;6169;44.158;22.788;2024-02-26T02:06:38;24.05;;;11.98;;
12212;SDS011;6169;44.158;22.788;2024-02-26T02:11:40;16.75;;;10.63;;
12212;SDS011;6169;44.158;22.788;2024-02-26T02:16:44;21.02;;;12.00;;
12212;SDS011;6169;44.158;22.788;2024-02-26T02:21:49;19.95;;;11.85;;
12212;SDS011;6169;44.158;22.788;2024-02-26T02:26:51;20.45;;;12.65;;
12212;SDS011;6169;44.158;22.788;2024-02-26T02:31:53;18.77;;;11.20;;
12212;SDS011;6169;44.158;22.788;2024-02-26T02:36:57;18.20;;;11.50;;
12212;SDS011;6169;44.158;22.788;2024-02-26T02:41:59;21.85;;;11.40;;
12212;SDS011;6169;44.158;22.788;2024-02-26T02:47:01;17.00;;;11.88;;
12212;SDS011;6169;44.158;22.788;2024-02-26T02:52:05;15.23;;;10.80;;
12212;SDS011;6169;44.158;22.788;2024-02-26T02:57:07;18.52;;;12.60;;
12212;SDS011;6169;44.158;22.788;2024-02-26T03:02:09;20.92;;;13.45;;
12212;SDS011;6169;44.158;22.788;2024-02-26T03:07:12;23.40;;;12.88;;
12212;SDS011;6169;44.158;22.788;2024-02-26T03:12:14;19.45;;;13.20;;
12212;SDS011;6169;44.158;22.788;2024-02-26T03:17:16;20.75;;;12.63;;
12212;SDS011;6169;44.158;22.788;2024-02-26T03:22:20;20.67;;;12.55;;
12212;SDS011;6169;44.158;22.788;2024-02-26T03:27:22;18.17;;;12.07;;
12212;SDS011;6169;44.158;22.788;2024-02-26T03:32:24;20.65;;;12.43;;
12212;SDS011;6169;44.158;22.788;2024-02-26T03:37:27;19.95;;;12.60;;
12212;SDS011;6169;44.158;22.788;2024-02-26T03:42:29;24.60;;;12.77;;
12212;SDS011;6169;44.158;22.788;2024-02-26T03:47:31;17.40;;;11.98;;
12212;SDS011;6169;44.158;22.788;2024-02-26T03:52:35;18.77;;;13.57;;
12212;SDS011;6169;44.158;22.788;2024-02-26T03:57:37;21.67;;;13.05;;
12212;SDS011;6169;44.158;22.788;2024-02-26T04:02:39;15.35;;;11.07;;
12212;SDS011;6169;44.158;22.788;2024-02-26T04:07:42;23.20;;;13.63;;
12212;SDS011;6169;44.158;22.788;2024-02-26T04:12:45;21.33;;;13.68;;
12212;SDS011;6169;44.158;22.788;2024-02-26T04:17:47;16.98;;;11.35;;
12212;SDS011;6169;44.158;22.788;2024-02-26T04:22:50;18.00;;;11.63;;
12212;SDS011;6169;44.158;22.788;2024-02-26T04:27:53;16.75;;;11.23;;
12212;SDS011;6169;44.158;22.788;2024-02-26T04:32:55;19.13;;;12.35;;
12212;SDS011;6169;44.158;22.788;2024-02-26T04:37:58;21.80;;;11.73;;
12212;SDS011;6169;44.158;22.788;2024-02-26T04:43:00;16.80;;;10.75;;
12212;SDS011;6169;44.158;22.788;2024-02-26T04:48:02;17.60;;;12.60;;
12212;SDS011;6169;44.158;22.788;2024-02-26T04:53:06;18.10;;;12.38;;
12212;SDS011;6169;44.158;22.788;2024-02-26T04:58:08;26.30;;;11.80;;
12212;SDS011;6169;44.158;22.788;2024-02-26T05:03:11;21.00;;;11.88;;
12212;SDS011;6169;44.158;22.788;2024-02-26T05:08:15;19.52;;;12.82;;
12212;SDS011;6169;44.158;22.788;2024-02-26T05:13:17;16.63;;;11.07;;
12212;SDS011;6169;44.158;22.788;2024-02-26T05:18:19;20.30;;;13.00;;
12212;SDS011;6169;44.158;22.788;2024-02-26T05:23:22;17.40;;;11.68;;
12212;SDS011;6169;44.158;22.788;2024-02-26T05:28:24;19.90;;;11.75;;
12212;SDS011;6169;44.158;22.788;2024-02-26T05:33:26;19.05;;;11.85;;
12212;SDS011;6169;44.158;22.788;2024-02-26T05:38:30;27.30;;;15.07;;
12212;SDS011;6169;44.158;22.788;2024-02-26T05:43:32;18.25;;;11.70;;
12212;SDS011;6169;44.158;22.788;2024-02-26T05:48:34;31.27;;;16.83;;
12212;SDS011;6169;44.158;22.788;2024-02-26T05:53:38;27.63;;;17.08;;
12212;SDS011;6169;44.158;22.788;2024-02-26T05:58:40;23.13;;;16.25;;
12212;SDS011;6169;44.158;22.788;2024-02-26T06:03:42;28.75;;;16.73;;
12212;SDS011;6169;44.158;22.788;2024-02-26T06:08:45;24.48;;;15.85;;
12212;SDS011;6169;44.158;22.788;2024-02-26T06:13:47;23.20;;;15.27;;
12212;SDS011;6169;44.158;22.788;2024-02-26T06:18:49;31.85;;;19.25;;
12212;SDS011;6169;44.158;22.788;2024-02-26T06:23:53;57.53;;;36.17;;
12212;SDS011;6169;44.158;22.788;2024-02-26T06:28:55;27.52;;;19.33;;
12212;SDS011;6169;44.158;22.788;2024-02-26T06:33:57;33.67;;;18.42;;
12212;SDS011;6169;44.158;22.788;2024-02-26T06:39:00;27.95;;;18.08;;
12212;SDS011;6169;44.158;22.788;2024-02-26T06:44:03;25.55;;;16.23;;
12212;SDS011;6169;44.158;22.788;2024-02-26T06:49:05;67.25;;;46.67;;
12212;SDS011;6169;44.158;22.788;2024-02-26T06:54:09;38.00;;;25.83;;
12212;SDS011;6169;44.158;22.788;2024-02-26T06:59:11;21.52;;;15.13;;
12212;SDS011;6169;44.158;22.788;2024-02-26T07:04:13;25.80;;;16.40;;
12212;SDS011;6169;44.158;22.788;2024-02-26T07:09:16;31.52;;;20.10;;
12212;SDS011;6169;44.158;22.788;2024-02-26T07:14:18;24.58;;;18.23;;
12212;SDS011;6169;44.158;22.788;2024-02-26T07:19:20;32.78;;;19.95;;
12212;SDS011;6169;44.158;22.788;2024-02-26T07:24:24;34.55;;;21.80;;
12212;SDS011;6169;44.158;22.788;2024-02-26T07:29:26;32.72;;;20.10;;
12212;SDS011;6169;44.158;22.788;2024-02-26T07:34:28;33.70;;;19.13;;
12212;SDS011;6169;44.158;22.788;2024-02-26T07:39:31;35.25;;;20.25;;
12212;SDS011;6169;44.158;22.788;2024-02-26T07:44:33;33.58;;;17.40;;
12212;SDS011;6169;44.158;22.788;2024-02-26T07:49:35;33.55;;;20.77;;
12212;SDS011;6169;44.158;22.788;2024-02-26T07:54:39;26.20;;;17.92;;
12212;SDS011;6169;44.158;22.788;2024-02-26T07:59:41;27.27;;;18.58;;
12212;SDS011;6169;44.158;22.788;2024-02-26T08:04:45;26.73;;;18.40;;
12212;SDS011;6169;44.158;22.788;2024-02-26T08:09:48;33.60;;;20.15;;
12212;SDS011;6169;44.158;22.788;2024-02-26T08:14:50;30.73;;;18.50;;
12212;SDS011;6169;44.158;22.788;2024-02-26T08:19:52;34.20;;;21.30;;
12212;SDS011;6169;44.158;22.788;2024-02-26T08:24:56;28.58;;;18.70;;
12212;SDS011;6169;44.158;22.788;2024-02-26T08:29:58;31.15;;;20.92;;
12212;SDS011;6169;44.158;22.788;2024-02-26T08:35:00;33.25;;;18.17;;
12212;SDS011;6169;44.158;22.788;2024-02-26T08:40:04;29.20;;;17.67;;
12212;SDS011;6169;44.158;22.788;2024-02-26T08:45:07;30.40;;;18.60;;
12212;SDS011;6169;44.158;22.788;2024-02-26T08:50:10;30.58;;;20.27;;
12212;SDS011;6169;44.158;22.788;2024-02-26T08:55:13;26.17;;;19.33;;
12212;SDS011;6169;44.158;22.788;2024-02-26T09:00:16;31.67;;;20.52;;
12212;SDS011;6169;44.158;22.788;2024-02-26T09:05:21;29.70;;;18.52;;
12212;SDS011;6169;44.158;22.788;2024-02-26T09:10:25;36.03;;;19.95;;
12212;SDS011;6169;44.158;22.788;2024-02-26T09:15:27;45.75;;;25.85;;
12212;SDS011;6169;44.158;22.788;2024-02-26T09:20:29;28.65;;;19.77;;
12212;SDS011;6169;44.158;22.788;2024-02-26T09:25:32;32.80;;;21.25;;
12212;SDS011;6169;44.158;22.788;2024-02-26T09:30:35;33.83;;;22.85;;
12212;SDS011;6169;44.158;22.788;2024-02-26T09:35:37;32.38;;;21.80;;
12212;SDS011;6169;44.158;22.788;2024-02-26T09:40:40;36.40;;;22.75;;
12212;SDS011;6169;44.158;22.788;2024-02-26T09:45:43;30.70;;;19.75;;
12212;SDS011;6169;44.158;22.788;2024-02-26T09:50:45;30.30;;;19.35;;
12212;SDS011;6169;44.158;22.788;2024-02-26T09:55:49;32.97;;;22.05;;
12212;SDS011;6169;44.158;22.788;2024-02-26T10:00:53;43.03;;;24.50;;
12212;SDS011;6169;44.158;22.788;2024-02-26T10:05:58;38.63;;;21.38;;
12212;SDS011;6169;44.158;22.788;2024-02-26T10:11:04;34.92;;;21.52;;
12212;SDS011;6169;44.158;22.788;2024-02-26T10:16:08;30.65;;;21.27;;
12212;SDS011;6169;44.158;22.788;2024-02-26T10:21:10;31.27;;;21.48;;
12212;SDS011;6169;44.158;22.788;2024-02-26T10:26:14;37.47;;;22.48;;
12212;SDS011;6169;44.158;22.788;2024-02-26T10:31:16;31.55;;;22.67;;
12212;SDS011;6169;44.158;22.788;2024-02-26T10:36:19;32.65;;;22.55;;
12212;SDS011;6169;44.158;22.788;2024-02-26T10:41:23;39.88;;;23.67;;
12212;SDS011;6169;44.158;22.788;2024-02-26T10:46:25;31.92;;;22.80;;
12212;SDS011;6169;44.158;22.788;2024-02-26T10:51:28;33.65;;;21.75;;
12212;SDS011;6169;44.158;22.788;2024-02-26T10:56:33;35.17;;;23.08;;
12212;SDS011;6169;44.158;22.788;2024-02-26T11:01:38;33.80;;;23.38;;
12212;SDS011;6169;44.158;22.788;2024-02-26T11:06:41;32.83;;;21.90;;
12212;SDS011;6169;44.158;22.788;2024-02-26T11:11:45;27.85;;;20.48;;
12212;SDS011;6169;44.158;22.788;2024-02-26T11:16:49;37.17;;;21.55;;
12212;SDS011;6169;44.158;22.788;2024-02-26T11:21:51;33.33;;;22.88;;
12212;SDS011;6169;44.158;22.788;2024-02-26T11:26:55;38.83;;;23.02;;
12212;SDS011;6169;44.158;22.788;2024-02-26T11:32:09;36.30;;;24.38;;
12212;SDS011;6169;44.158;22.788;2024-02-26T11:37:12;34.88;;;24.13;;
12212;SDS011;6169;44.158;22.788;2024-02-26T11:42:15;37.03;;;24.67;;
12212;SDS011;6169;44.158;22.788;2024-02-26T11:47:20;39.92;;;22.38;;
12212;SDS011;6169;44.158;22.788;2024-02-26T11:52:23;34.92;;;22.52;;
12212;SDS011;6169;44.158;22.788;2024-02-26T11:57:26;34.25;;;22.55;;
12212;SDS011;6169;44.158;22.788;2024-02-26T12:02:41;31.17;;;21.27;;
12212;SDS011;6169;44.158;22.788;2024-02-26T12:07:45;28.65;;;20.10;;
12212;SDS011;6169;44.158;22.788;2024-02-26T12:12:49;35.83;;;23.02;;
12212;SDS011;6169;44.158;22.788;2024-02-26T12:17:55;37.13;;;22.25;;
12212;SDS011;6169;44.158;22.788;2024-02-26T12:22:58;29.60;;;20.50;;
12212;SDS011;6169;44.158;22.788;2024-02-26T12:28:00;29.40;;;18.45;;
12212;SDS011;6169;44.158;22.788;2024-02-26T12:33:04;30.55;;;19.23;;
12212;SDS011;6169;44.158;22.788;2024-02-26T12:38:08;26.67;;;18.13;;
12212;SDS011;6169;44.158;22.788;2024-02-26T12:43:10;29.15;;;19.35;;
12212;SDS011;6169;44.158;22.788;2024-02-26T12:48:14;35.90;;;24.02;;
12212;SDS011;6169;44.158;22.788;2024-02-26T12:53:16;26.65;;;18.85;;
12212;SDS011;6169;44.158;22.788;2024-02-26T12:58:19;37.75;;;20.85;;
12212;SDS011;6169;44.158;22.788;2024-02-26T13:03:26;31.38;;;18.63;;
12212;SDS011;6169;44.158;22.788;2024-02-26T13:08:29;31.75;;;21.45;;
12212;SDS011;6169;44.158;22.788;2024-02-26T13:13:31;25.70;;;19.02;;
12212;SDS011;6169;44.158;22.788;2024-02-26T13:18:34;27.48;;;18.42;;
12212;SDS011;6169;44.158;22.788;2024-02-26T13:23:37;32.65;;;21.95;;
12212;SDS011;6169;44.158;22.788;2024-02-26T13:28:39;30.48;;;19.95;;
12212;SDS011;6169;44.158;22.788;2024-02-26T13:33:43;28.67;;;19.30;;
12212;SDS011;6169;44.158;22.788;2024-02-26T13:38:52;28.98;;;20.55;;
12212;SDS011;6169;44.158;22.788;2024-02-26T13:43:56;26.30;;;17.85;;
12212;SDS011;6169;44.158;22.788;2024-02-26T13:48:59;25.75;;;17.65;;
12212;SDS011;6169;44.158;22.788;2024-02-26T13:54:01;27.25;;;20.67;;
12212;SDS011;6169;44.158;22.788;2024-02-26T13:59:04;26.48;;;18.92;;
12212;SDS011;6169;44.158;22.788;2024-02-26T14:04:08;25.02;;;17.70;;
12212;SDS011;6169;44.158;22.788;2024-02-26T14:09:10;27.20;;;18.58;;
12212;SDS011;6169;44.158;22.788;2024-02-26T14:14:18;25.75;;;18.48;;
12212;SDS011;6169;44.158;22.788;2024-02-26T14:19:22;25.17;;;17.15;;
12212;SDS011;6169;44.158;22.788;2024-02-26T14:24:24;27.70;;;17.83;;
12212;SDS011;6169;44.158;22.788;2024-02-26T14:29:26;28.10;;;18.80;;
12212;SDS011;6169;44.158;22.788;2024-02-26T14:34:30;25.23;;;17.73;;
12212;SDS011;6169;44.158;22.788;2024-02-26T14:39:33;27.80;;;18.33;;
12212;SDS011;6169;44.158;22.788;2024-02-26T14:44:35;30.25;;;18.77;;
12212;SDS011;6169;44.158;22.788;2024-02-26T14:49:38;27.63;;;18.48;;
12212;SDS011;6169;44.158;22.788;2024-02-26T14:54:40;27.23;;;17.48;;
12212;SDS011;6169;44.158;22.788;2024-02-26T14:59:42;25.98;;;17.90;;
12212;SDS011;6169;44.158;22.788;2024-02-26T15:04:46;25.67;;;18.58;;
12212;SDS011;6169;44.158;22.788;2024-02-26T15:09:48;33.53;;;19.15;;
12212;SDS011;6169;44.158;22.788;2024-02-26T15:14:50;28.08;;;18.05;;
12212;SDS011;6169;44.158;22.788;2024-02-26T15:19:54;27.83;;;17.80;;
12212;SDS011;6169;44.158;22.788;2024-02-26T15:24:57;31.08;;;19.85;;
12212;SDS011;6169;44.158;22.788;2024-02-26T15:29:59;25.30;;;18.25;;
12212;SDS011;6169;44.158;22.788;2024-02-26T15:35:03;27.30;;;17.83;;
12212;SDS011;6169;44.158;22.788;2024-02-26T15:40:07;24.98;;;17.55;;
12212;SDS011;6169;44.158;22.788;2024-02-26T15:45:11;30.38;;;19.90;;
12212;SDS011;6169;44.158;22.788;2024-02-26T15:50:15;26.75;;;17.92;;
12212;SDS011;6169;44.158;22.788;2024-02-26T15:55:17;27.15;;;18.95;;
12212;SDS011;6169;44.158;22.788;2024-02-26T16:00:19;28.70;;;18.23;;
12212;SDS011;6169;44.158;22.788;2024-02-26T16:05:22;31.88;;;20.67;;
12212;SDS011;6169;44.158;22.788;2024-02-26T16:10:24;38.97;;;25.48;;
12212;SDS011;6169;44.158;22.788;2024-02-26T16:15:27;47.20;;;25.88;;
12212;SDS011;6169;44.158;22.788;2024-02-26T16:20:31;45.55;;;28.05;;
12212;SDS011;6169;44.158;22.788;2024-02-26T16:25:34;52.97;;;28.20;;
12212;SDS011;6169;44.158;22.788;2024-02-26T16:30:36;48.60;;;26.65;;
12212;SDS011;6169;44.158;22.788;2024-02-26T16:35:39;47.90;;;26.65;;
12212;SDS011;6169;44.158;22.788;2024-02-26T16:40:41;41.58;;;23.80;;
12212;SDS011;6169;44.158;22.788;2024-02-26T16:45:43;33.60;;;20.75;;
12212;SDS011;6169;44.158;22.788;2024-02-26T16:50:48;37.42;;;20.15;;
12212;SDS011;6169;44.158;22.788;2024-02-26T16:55:50;36.53;;;21.08;;
12212;SDS011;6169;44.158;22.788;2024-02-26T17:00:52;35.22;;;20.95;;
12212;SDS011;6169;44.158;22.788;2024-02-26T17:05:56;36.55;;;21.40;;
12212;SDS011;6169;44.158;22.788;2024-02-26T17:10:59;40.38;;;23.60;;
12212;SDS011;6169;44.158;22.788;2024-02-26T17:16:01;38.50;;;23.65;;
12212;SDS011;6169;44.158;22.788;2024-02-26T17:21:04;37.75;;;25.65;;
12212;SDS011;6169;44.158;22.788;2024-02-26T17:26:08;35.13;;;22.20;;
12212;SDS011;6169;44.158;22.788;2024-02-26T17:31:11;34.97;;;20.75;;
12212;SDS011;6169;44.158;22.788;2024-02-26T17:36:15;38.42;;;23.73;;
12212;SDS011;6169;44.158;22.788;2024-02-26T17:41:17;86.85;;;44.30;;
12212;SDS011;6169;44.158;22.788;2024-02-26T17:46:19;72.88;;;40.40;;
12212;SDS011;6169;44.158;22.788;2024-02-26T17:51:23;59.28;;;35.90;;
12212;SDS011;6169;44.158;22.788;2024-02-26T17:56:25;61.38;;;34.97;;
12212;SDS011;6169;44.158;22.788;2024-02-26T18:01:27;61.20;;;33.72;;
12212;SDS011;6169;44.158;22.788;2024-02-26T18:06:31;46.38;;;27.35;;
12212;SDS011;6169;44.158;22.788;2024-02-26T18:11:33;46.10;;;30.10;;
12212;SDS011;6169;44.158;22.788;2024-02-26T18:16:35;44.55;;;26.63;;
12212;SDS011;6169;44.158;22.788;2024-02-26T18:21:38;47.47;;;29.30;;
12212;SDS011;6169;44.158;22.788;2024-02-26T18:26:41;50.55;;;28.45;;
12212;SDS011;6169;44.158;22.788;2024-02-26T18:31:43;55.45;;;34.28;;
12212;SDS011;6169;44.158;22.788;2024-02-26T18:36:47;50.17;;;30.35;;
12212;SDS011;6169;44.158;22.788;2024-02-26T18:41:49;47.78;;;30.05;;
12212;SDS011;6169;44.158;22.788;2024-02-26T18:46:51;46.28;;;30.10;;
12212;SDS011;6169;44.158;22.788;2024-02-26T18:51:56;41.15;;;25.70;;
12212;SDS011;6169;44.158;22.788;2024-02-26T18:56:58;50.58;;;28.95;;
12212;SDS011;6169;44.158;22.788;2024-02-26T19:02:00;40.60;;;27.20;;
12212;SDS011;6169;44.158;22.788;2024-02-26T19:07:03;43.75;;;27.30;;
12212;SDS011;6169;44.158;22.788;2024-02-26T19:12:06;36.67;;;25.05;;
12212;SDS011;6169;44.158;22.788;2024-02-26T19:17:09;44.22;;;26.60;;
12212;SDS011;6169;44.158;22.788;2024-02-26T19:22:12;61.42;;;35.17;;
12212;SDS011;6169;44.158;22.788;2024-02-26T19:27:15;126.65;;;85.25;;
12212;SDS011;6169;44.158;22.788;2024-02-26T19:32:17;85.65;;;45.33;;
12212;SDS011;6169;44.158;22.788;2024-02-26T19:37:20;40.15;;;25.88;;
12212;SDS011;6169;44.158;22.788;2024-02-26T19:42:23;33.53;;;21.02;;
12212;SDS011;6169;44.158;22.788;2024-02-26T19:47:25;42.45;;;24.50;;
12212;SDS011;6169;44.158;22.788;2024-02-26T19:52:29;49.22;;;29.67;;
12212;SDS011;6169;44.158;22.788;2024-02-26T19:57:31;37.70;;;24.65;;
12212;SDS011;6169;44.158;22.788;2024-02-26T20:02:34;34.10;;;20.88;;
12212;SDS011;6169;44.158;22.788;2024-02-26T20:07:38;39.78;;;22.10;;
12212;SDS011;6169;44.158;22.788;2024-02-26T20:12:40;29.23;;;20.23;;
12212;SDS011;6169;44.158;22.788;2024-02-26T20:17:42;35.40;;;22.70;;
12212;SDS011;6169;44.158;22.788;2024-02-26T20:22:46;33.33;;;21.15;;
12212;SDS011;6169;44.158;22.788;2024-02-26T20:27:48;36.75;;;21.02;;
12212;SDS011;6169;44.158;22.788;2024-02-26T20:32:50;29.52;;;20.67;;
12212;SDS011;6169;44.158;22.788;2024-02-26T20:37:54;30.77;;;20.27;;
12212;SDS011;6169;44.158;22.788;2024-02-26T20:42:56;31.65;;;20.60;;
12212;SDS011;6169;44.158;22.788;2024-02-26T20:47:58;31.52;;;20.23;;
12212;SDS011;6169;44.158;22.788;2024-02-26T20:53:01;35.42;;;21.85;;
12212;SDS011;6169;44.158;22.788;2024-02-26T20:58:03;29.27;;;20.17;;
12212;SDS011;6169;44.158;22.788;2024-02-26T21:03:05;34.17;;;22.23;;
12212;SDS011;6169;44.158;22.788;2024-02-26T21:08:10;36.08;;;23.33;;
12212;SDS011;6169;44.158;22.788;2024-02-26T21:13:12;38.40;;;22.73;;
12212;SDS011;6169;44.158;22.788;2024-02-26T21:18:14;34.00;;;21.15;;
12212;SDS011;6169;44.158;22.788;2024-02-26T21:23:18;37.60;;;20.75;;
12212;SDS011;6169;44.158;22.788;2024-02-26T21:28:20;34.30;;;22.80;;
12212;SDS011;6169;44.158;22.788;2024-02-26T21:33:22;37.90;;;22.02;;
12212;SDS011;6169;44.158;22.788;2024-02-26T21:38:25;34.08;;;21.88;;
12212;SDS011;6169;44.158;22.788;2024-02-26T21:43:27;34.72;;;22.10;;
12212;SDS011;6169;44.158;22.788;2024-02-26T21:48:31;34.53;;;20.95;;
12212;SDS011;6169;44.158;22.788;2024-02-26T21:53:34;37.63;;;23.33;;
12212;SDS011;6169;44.158;22.788;2024-02-26T21:58:36;42.05;;;24.88;;
12212;SDS011;6169;44.158;22.788;2024-02-26T22:03:39;42.42;;;23.77;;
12212;SDS011;6169;44.158;22.788;2024-02-26T22:08:44;34.72;;;21.65;;
12212;SDS011;6169;44.158;22.788;2024-02-26T22:13:47;45.03;;;26.42;;
12212;SDS011;6169;44.158;22.788;2024-02-26T22:18:49;50.63;;;30.60;;
12212;SDS011;6169;44.158;22.788;2024-02-26T22:23:52;44.03;;;25.52;;
12212;SDS011;6169;44.158;22.788;2024-02-26T22:28:54;49.83;;;26.40;;
12212;SDS011;6169;44.158;22.788;2024-02-26T22:33:56;49.55;;;29.27;;
12212;SDS011;6169;44.158;22.788;2024-02-26T22:39:00;36.28;;;22.52;;
12212;SDS011;6169;44.158;22.788;2024-02-26T22:44:03;36.20;;;21.85;;
12212;SDS011;6169;44.158;22.788;2024-02-26T22:49:06;43.42;;;24.55;;
12212;SDS011;6169;44.158;22.788;2024-02-26T22:54:09;41.05;;;23.40;;
12212;SDS011;6169;44.158;22.788;2024-02-26T22:59:12;40.20;;;25.63;;
12212;SDS011;6169;44.158;22.788;2024-02-26T23:04:14;35.45;;;20.70;;
12212;SDS011;6169;44.158;22.788;2024-02-26T23:09:18;36.20;;;21.80;;
12212;SDS011;6169;44.158;22.788;2024-02-26T23:14:20;36.28;;;21.90;;
12212;SDS011;6169;44.158;22.788;2024-02-26T23:19:22;39.08;;;23.50;;
12212;SDS011;6169;44.158;22.788;2024-02-26T23:24:26;39.15;;;24.17;;
12212;SDS011;6169;44.158;22.788;2024-02-26T23:29:28;37.72;;;23.25;;
12212;SDS011;6169;44.158;22.788;2024-02-26T23:34:30;38.97;;;25.33;;
12212;SDS011;6169;44.158;22.788;2024-02-26T23:39:34;42.65;;;24.13;;
12212;SDS011;6169;44.158;22.788;2024-02-26T23:44:36;41.92;;;26.80;;
12212;SDS011;6169;44.158;22.788;2024-02-26T23:49:38;60.28;;;28.98;;
12212;SDS011;6169;44.158;22.788;2024-02-26T23:54:41;40.85;;;27.77;;
12212;SDS011;6169;44.158;22.788;2024-02-26T23:59:44;45.50;;;29.20;;
